createdAt,value
2019-03-13T00:00:44.739Z,8.60
2019-03-13T00:04:57.254Z,8.60
2019-03-13T00:09:12.167Z,8.60
2019-03-13T00:13:24.551Z,8.60
2019-03-13T00:17:36.912Z,8.60
2019-03-13T00:21:49.888Z,8.50
2019-03-13T00:26:02.485Z,8.50
2019-03-13T00:30:15.695Z,8.40
2019-03-13T00:34:28.064Z,8.30
2019-03-13T00:38:40.373Z,8.30
2019-03-13T00:42:52.676Z,8.40
2019-03-13T00:47:05.403Z,8.50
2019-03-13T00:51:17.717Z,8.50
2019-03-13T00:55:30.129Z,8.50
2019-03-13T00:59:42.825Z,8.50
2019-03-13T01:04:16.508Z,8.60
2019-03-13T01:08:29.099Z,8.60
2019-03-13T01:12:41.396Z,8.60
2019-03-13T01:16:54.088Z,8.60
2019-03-13T01:21:06.779Z,8.50
2019-03-13T01:25:19.644Z,8.50
2019-03-13T01:29:32.164Z,8.60
2019-03-13T01:33:44.599Z,8.70
2019-03-13T01:37:57.103Z,8.80
2019-03-13T01:42:09.604Z,8.90
2019-03-13T01:46:21.861Z,8.70
2019-03-13T01:50:35.409Z,8.50
2019-03-13T01:54:47.826Z,8.30
2019-03-13T01:59:00.771Z,8.20
2019-03-13T02:03:13.487Z,8.10
2019-03-13T02:07:26.916Z,8.10
2019-03-13T02:11:39.574Z,8.00
2019-03-13T02:15:52.324Z,8.00
2019-03-13T02:20:04.837Z,7.90
2019-03-13T02:24:17.301Z,7.90
2019-03-13T02:28:30.171Z,7.90
2019-03-13T02:32:42.626Z,8.00
2019-03-13T02:36:56.247Z,8.00
2019-03-13T02:41:08.500Z,8.10
2019-03-13T02:45:21.264Z,8.20
2019-03-13T02:49:33.726Z,8.30
2019-03-13T02:53:46.213Z,8.40
2019-03-13T02:57:59.031Z,8.40
2019-03-13T03:02:23.432Z,8.50
2019-03-13T03:06:35.803Z,8.50
2019-03-13T03:10:48.199Z,8.50
2019-03-13T03:15:07.497Z,8.50
2019-03-13T03:19:19.874Z,8.50
2019-03-13T03:23:32.333Z,8.50
2019-03-13T03:27:45.300Z,8.50
2019-03-13T03:31:57.818Z,8.50
2019-03-13T03:36:10.156Z,8.40
2019-03-13T03:40:23.622Z,8.50
2019-03-13T03:44:36.492Z,8.40
2019-03-13T03:48:48.948Z,8.40
2019-03-13T03:53:01.253Z,8.50
2019-03-13T03:57:14.214Z,8.50
2019-03-13T04:01:26.706Z,8.50
2019-03-13T04:05:39.118Z,8.40
2019-03-13T04:09:51.858Z,8.40
2019-03-13T04:14:04.364Z,8.50
2019-03-13T04:18:16.666Z,8.50
2019-03-13T04:22:29.704Z,8.50
2019-03-13T04:26:46.855Z,8.10
2019-03-13T04:30:59.132Z,7.90
2019-03-13T04:35:11.792Z,7.80
2019-03-13T04:39:24.215Z,7.60
2019-03-13T04:43:36.483Z,7.50
2019-03-13T04:47:49.178Z,7.60
2019-03-13T04:52:01.747Z,7.40
2019-03-13T04:56:14.250Z,7.50
2019-03-13T05:00:27.496Z,7.50
2019-03-13T05:04:39.974Z,7.50
2019-03-13T05:09:01.877Z,7.40
2019-03-13T05:13:14.470Z,7.50
2019-03-13T05:17:26.883Z,7.50
2019-03-13T05:21:39.190Z,7.60
2019-03-13T05:25:52.164Z,7.70
2019-03-13T05:30:04.752Z,7.70
2019-03-13T05:34:17.044Z,7.80
2019-03-13T05:38:29.823Z,7.80
2019-03-13T05:42:42.341Z,7.70
2019-03-13T05:46:55.287Z,7.70
2019-03-13T05:51:07.741Z,7.60
2019-03-13T05:55:20.156Z,7.60
2019-03-13T05:59:33.598Z,7.60
2019-03-13T06:03:45.933Z,7.60
2019-03-13T06:07:59.083Z,7.60
2019-03-13T06:12:11.669Z,7.60
2019-03-13T06:16:24.038Z,7.60
2019-03-13T06:20:36.767Z,7.60
2019-03-13T06:24:49.372Z,7.70
2019-03-13T06:29:02.331Z,7.70
2019-03-13T06:33:14.772Z,7.90
2019-03-13T06:37:28.443Z,7.90
2019-03-13T06:41:40.895Z,7.90
2019-03-13T06:45:53.613Z,8.00
2019-03-13T06:50:06.606Z,7.90
2019-03-13T06:54:19.374Z,7.90
2019-03-13T06:58:50.368Z,7.90
2019-03-13T07:03:36.760Z,8.00
2019-03-13T07:08:11.192Z,8.00
2019-03-13T07:12:34.361Z,8.10
2019-03-13T07:16:57.053Z,8.10
2019-03-13T07:21:33.831Z,8.10
2019-03-13T07:26:08.443Z,8.30
2019-03-13T07:30:49.014Z,8.50
2019-03-13T07:35:21.931Z,8.50
2019-03-13T07:40:08.219Z,8.50
2019-03-13T07:44:54.427Z,8.50
2019-03-13T07:49:29.166Z,8.60
2019-03-13T07:54:12.507Z,8.70
2019-03-13T07:58:31.510Z,8.90
2019-03-13T08:02:55.811Z,8.90
2019-03-13T08:07:25.903Z,9.00
2019-03-13T08:12:12.825Z,9.20
2019-03-13T08:16:48.384Z,9.40
2019-03-13T08:21:25.990Z,9.60
2019-03-13T08:26:12.503Z,9.90
2019-03-13T08:30:46.834Z,10.10
2019-03-13T08:35:30.174Z,10.10
2019-03-13T08:39:49.860Z,10.20
2019-03-13T08:44:30.539Z,10.30
2019-03-13T08:49:05.378Z,10.50
2019-03-13T08:53:35.099Z,10.70
2019-03-13T08:57:52.891Z,10.90
2019-03-13T09:02:14.779Z,11.10
2019-03-13T09:06:45.319Z,11.00
2019-03-13T09:11:17.109Z,11.00
2019-03-13T09:15:39.063Z,11.10
2019-03-13T09:20:12.980Z,11.20
2019-03-13T09:24:44.103Z,11.40
2019-03-13T09:29:21.553Z,11.40
2019-03-13T09:33:51.633Z,11.50
2019-03-13T09:38:21.714Z,11.70
2019-03-13T09:42:47.072Z,11.80
2019-03-13T09:47:24.411Z,12.00
2019-03-13T09:51:54.355Z,11.90
2019-03-13T09:56:17.615Z,10.80
2019-03-13T10:00:54.981Z,10.50
2019-03-13T10:05:24.495Z,10.80
2019-03-13T10:09:50.567Z,11.00
2019-03-13T10:14:19.571Z,11.30
2019-03-13T10:18:45.915Z,11.40
2019-03-13T10:23:17.034Z,11.60
2019-03-13T10:27:51.568Z,11.70
2019-03-13T10:32:25.793Z,11.70
2019-03-13T10:36:50.574Z,11.70
2019-03-13T10:41:08.790Z,11.90
2019-03-13T10:45:30.625Z,11.90
2019-03-13T10:49:53.849Z,12.10
2019-03-13T10:54:37.809Z,12.30
2019-03-13T10:59:08.143Z,12.40
2019-03-13T11:03:32.168Z,12.20
2019-03-13T11:08:15.779Z,12.20
2019-03-13T11:12:36.733Z,12.40
2019-03-13T11:17:06.515Z,12.30
2019-03-13T11:21:24.573Z,12.00
2019-03-13T11:25:47.251Z,11.70
2019-03-13T11:30:34.041Z,11.40
2019-03-13T11:35:17.792Z,11.40
2019-03-13T11:39:49.355Z,11.40
2019-03-13T11:44:20.611Z,11.60
2019-03-13T11:48:49.248Z,11.90
2019-03-13T11:53:26.403Z,12.30
2019-03-13T11:58:03.906Z,12.50
2019-03-13T12:02:46.838Z,12.20
2019-03-13T12:07:13.112Z,12.00
2019-03-13T12:11:37.985Z,12.00
2019-03-13T12:16:12.320Z,11.90
2019-03-13T12:20:39.619Z,11.90
2019-03-13T12:25:10.247Z,12.20
2019-03-13T12:29:50.386Z,12.50
2019-03-13T12:34:30.654Z,12.60
2019-03-13T12:38:50.649Z,12.60
2019-03-13T12:43:15.351Z,12.70
2019-03-13T12:47:52.855Z,12.60
2019-03-13T12:52:20.024Z,12.70
2019-03-13T12:56:44.146Z,12.80
2019-03-13T13:01:05.534Z,12.80
2019-03-13T13:05:36.789Z,13.00
2019-03-13T13:10:06.410Z,13.10
2019-03-13T13:14:36.164Z,13.20
2019-03-13T13:18:54.941Z,13.00
2019-03-13T13:23:07.871Z,13.20
2019-03-13T13:27:20.411Z,13.30
2019-03-13T13:31:32.811Z,13.30
2019-03-13T13:35:45.444Z,13.00
2019-03-13T13:39:57.800Z,13.00
2019-03-13T13:44:10.207Z,13.00
2019-03-13T13:48:23.552Z,13.00
2019-03-13T13:52:35.858Z,12.60
2019-03-13T13:56:48.723Z,12.50
2019-03-13T14:01:01.209Z,12.40
2019-03-13T14:05:14.884Z,12.80
2019-03-13T14:09:29.155Z,13.20
2019-03-13T14:13:41.921Z,13.30
2019-03-13T14:17:54.357Z,13.40
2019-03-13T14:22:06.762Z,13.20
2019-03-13T14:26:19.148Z,13.00
2019-03-13T14:30:32.081Z,12.90
2019-03-13T14:34:44.969Z,13.20
2019-03-13T14:38:57.560Z,13.40
2019-03-13T14:43:09.859Z,13.40
2019-03-13T14:47:23.307Z,13.20
2019-03-13T14:51:35.620Z,13.00
2019-03-13T14:55:48.109Z,12.90
2019-03-13T15:00:00.829Z,13.00
2019-03-13T15:04:13.504Z,13.20
2019-03-13T15:08:25.896Z,13.20
2019-03-13T15:12:38.256Z,13.30
2019-03-13T15:16:53.286Z,13.00
2019-03-13T15:21:05.798Z,12.40
2019-03-13T15:25:18.491Z,12.20
2019-03-13T15:29:31.004Z,12.10
2019-03-13T15:33:45.115Z,12.20
2019-03-13T15:37:58.497Z,12.30
2019-03-13T15:42:10.847Z,12.30
2019-03-13T15:46:23.649Z,12.30
2019-03-13T15:50:36.100Z,12.30
2019-03-13T15:54:48.504Z,12.40
2019-03-13T15:59:01.423Z,12.20
2019-03-13T16:03:13.968Z,11.80
2019-03-13T16:07:26.432Z,11.70
2019-03-13T16:11:38.683Z,11.70
2019-03-13T16:15:51.499Z,11.70
2019-03-13T16:20:05.185Z,11.70
2019-03-13T16:24:17.949Z,11.80
2019-03-13T16:28:30.455Z,11.90
2019-03-13T16:32:44.328Z,11.90
2019-03-13T16:36:57.279Z,11.90
2019-03-13T16:41:09.691Z,11.90
2019-03-13T16:45:22.001Z,12.00
2019-03-13T16:49:35.441Z,12.00
2019-03-13T16:53:47.745Z,11.80
2019-03-13T16:58:01.104Z,11.80
2019-03-13T17:02:13.622Z,11.70
2019-03-13T17:06:25.925Z,11.70
2019-03-13T17:10:38.819Z,11.60
2019-03-13T17:14:51.377Z,11.50
2019-03-13T17:19:04.356Z,11.20
2019-03-13T17:23:17.175Z,11.20
2019-03-13T17:27:30.015Z,11.20
2019-03-13T17:31:42.700Z,11.20
2019-03-13T17:35:55.219Z,11.20
2019-03-13T17:40:08.796Z,11.20
2019-03-13T17:44:21.144Z,11.20
2019-03-13T17:48:34.619Z,11.00
2019-03-13T17:52:47.064Z,11.00
2019-03-13T17:57:01.076Z,11.00
2019-03-13T18:01:14.250Z,10.70
2019-03-13T18:05:27.707Z,10.80
2019-03-13T18:09:40.352Z,10.80
2019-03-13T18:13:52.752Z,10.80
2019-03-13T18:18:06.212Z,10.80
2019-03-13T18:22:18.608Z,10.70
2019-03-13T18:26:32.023Z,10.50
2019-03-13T18:30:45.882Z,10.50
2019-03-13T18:34:58.792Z,10.40
2019-03-13T18:39:11.584Z,10.50
2019-03-13T18:43:24.186Z,10.40
2019-03-13T18:47:36.600Z,10.50
2019-03-13T18:51:49.211Z,10.30
2019-03-13T18:56:01.624Z,10.40
2019-03-13T19:00:19.608Z,10.20
2019-03-13T19:04:32.194Z,10.10
2019-03-13T19:08:44.595Z,10.10
2019-03-13T19:12:57.024Z,10.00
2019-03-13T19:17:09.708Z,9.90
2019-03-13T19:21:22.164Z,9.80
2019-03-13T19:25:34.584Z,9.70
2019-03-13T19:29:47.021Z,9.70
2019-03-13T19:33:59.884Z,9.80
2019-03-13T19:38:12.424Z,9.90
2019-03-13T19:42:24.817Z,9.90
2019-03-13T19:46:37.641Z,9.90
2019-03-13T19:50:50.102Z,10.00
2019-03-13T19:55:02.498Z,9.90
2019-03-13T19:59:15.299Z,9.90
2019-03-13T20:03:27.848Z,9.90
2019-03-13T20:07:40.169Z,9.90
2019-03-13T20:11:53.023Z,9.80
2019-03-13T20:16:05.520Z,9.90
2019-03-13T20:20:19.933Z,9.80
2019-03-13T20:24:32.454Z,9.80
2019-03-13T20:28:46.230Z,9.80
2019-03-13T20:32:59.474Z,9.80
2019-03-13T20:37:11.996Z,9.90
2019-03-13T20:41:24.410Z,9.90
2019-03-13T20:45:36.782Z,9.90
2019-03-13T20:49:49.498Z,9.80
2019-03-13T20:54:01.966Z,9.90
2019-03-13T20:58:14.271Z,9.90
2019-03-13T21:02:26.482Z,9.90
2019-03-13T21:06:39.937Z,9.90
2019-03-13T21:10:52.816Z,9.90
2019-03-13T21:15:05.603Z,10.00
2019-03-13T21:19:19.020Z,10.10
2019-03-13T21:23:31.428Z,10.00
2019-03-13T21:27:47.417Z,10.10
2019-03-13T21:31:58.547Z,10.10
2019-03-13T21:36:10.928Z,10.10
2019-03-13T21:40:24.418Z,10.10
2019-03-13T21:44:36.783Z,10.10
2019-03-13T21:48:49.637Z,10.00
2019-03-13T21:53:02.035Z,10.00
2019-03-13T21:57:14.430Z,10.00
2019-03-13T22:01:26.676Z,10.10
2019-03-13T22:05:39.555Z,10.10
2019-03-13T22:09:51.999Z,10.10
2019-03-13T22:14:04.525Z,10.10
2019-03-13T22:18:18.398Z,10.10
2019-03-13T22:22:30.987Z,10.10
2019-03-13T22:26:43.513Z,10.00
2019-03-13T22:30:56.046Z,10.10
2019-03-13T22:35:10.163Z,10.00
2019-03-13T22:39:22.603Z,10.00
2019-03-13T22:43:35.116Z,10.00
2019-03-13T22:47:48.000Z,10.00
2019-03-13T22:52:00.626Z,10.10
2019-03-13T22:56:12.980Z,10.10
2019-03-13T23:00:58.887Z,10.00
2019-03-13T23:05:11.399Z,10.10
2019-03-13T23:09:24.008Z,10.20
2019-03-13T23:13:36.324Z,10.20
2019-03-13T23:17:49.218Z,10.30
2019-03-13T23:22:01.754Z,10.30
2019-03-13T23:26:14.194Z,10.30
2019-03-13T23:30:27.201Z,10.30
2019-03-13T23:34:39.764Z,10.30
2019-03-13T23:38:52.529Z,10.40
2019-03-13T23:43:06.610Z,10.40
2019-03-13T23:47:21.241Z,10.50
2019-03-13T23:51:33.907Z,10.50
2019-03-13T23:55:46.385Z,10.50
